createdAt,value
2023-02-22T00:00:56.321Z,3.83
2023-02-22T00:03:27.799Z,4.07
2023-02-22T00:05:59.668Z,3.23
2023-02-22T00:08:30.591Z,4.03
2023-02-22T00:10:58.947Z,4.67
2023-02-22T00:13:29.271Z,3.80
2023-02-22T00:15:57.917Z,3.50
2023-02-22T00:18:27.964Z,3.23
2023-02-22T00:20:59.905Z,3.37
2023-02-22T00:23:29.738Z,3.30
2023-02-22T00:25:58.904Z,3.53
2023-02-22T00:28:27.351Z,2.70
2023-02-22T00:30:55.795Z,2.80
2023-02-22T00:33:24.049Z,3.67
2023-02-22T00:35:52.280Z,4.13
2023-02-22T00:38:21.961Z,4.70
2023-02-22T00:40:50.273Z,3.80
2023-02-22T00:43:18.528Z,3.20
2023-02-22T00:45:47.382Z,3.00
2023-02-22T00:48:15.896Z,4.13
2023-02-22T00:50:44.155Z,3.60
2023-02-22T00:53:12.639Z,5.10
2023-02-22T00:55:42.253Z,3.30
2023-02-22T00:58:10.530Z,3.60
2023-02-22T01:00:40.249Z,4.20
2023-02-22T01:03:10.530Z,4.00
2023-02-22T01:05:39.231Z,4.37
2023-02-22T01:08:08.701Z,5.40
2023-02-22T01:10:37.487Z,3.87
2023-02-22T01:13:09.150Z,4.07
2023-02-22T01:15:39.233Z,4.00
2023-02-22T01:18:07.741Z,4.20
2023-02-22T01:20:35.988Z,4.60
2023-02-22T01:23:06.582Z,4.00
2023-02-22T01:25:35.283Z,3.07
2023-02-22T01:28:04.393Z,3.57
2023-02-22T01:30:37.689Z,3.73
2023-02-22T01:33:08.362Z,4.00
2023-02-22T01:35:40.797Z,4.17
2023-02-22T01:38:09.569Z,3.27
2023-02-22T01:40:39.253Z,3.90
2023-02-22T01:43:21.609Z,3.53
2023-02-22T01:45:57.373Z,3.93
2023-02-22T01:48:30.927Z,3.30
2023-02-22T01:51:02.270Z,3.60
2023-02-22T01:53:33.638Z,3.30
2023-02-22T01:56:01.942Z,4.83
2023-02-22T01:58:30.600Z,4.70
2023-02-22T02:01:01.117Z,4.37
2023-02-22T02:03:33.161Z,2.87
2023-02-22T02:06:03.901Z,3.43
2023-02-22T02:08:37.751Z,2.60
2023-02-22T02:11:09.029Z,3.90
2023-02-22T02:13:37.916Z,3.17
2023-02-22T02:16:07.940Z,2.73
2023-02-22T02:18:36.239Z,3.73
2023-02-22T02:21:45.278Z,3.20
2023-02-22T02:25:05.179Z,2.37
2023-02-22T02:27:42.233Z,3.00
2023-02-22T02:30:53.649Z,3.60
2023-02-22T02:33:24.273Z,3.00
2023-02-22T02:35:57.539Z,2.90
2023-02-22T02:38:33.490Z,2.53
2023-02-22T02:41:08.648Z,3.93
2023-02-22T02:43:41.453Z,4.20
2023-02-22T02:46:12.268Z,3.60
2023-02-22T02:48:45.001Z,3.30
2023-02-22T02:51:14.324Z,2.60
2023-02-22T02:53:45.466Z,3.83
2023-02-22T02:56:13.749Z,3.23
2023-02-22T02:58:49.075Z,3.97
2023-02-22T03:01:23.780Z,3.17
2023-02-22T03:04:22.454Z,3.07
2023-02-22T03:07:29.711Z,4.03
2023-02-22T03:10:09.650Z,2.47
2023-02-22T03:12:45.381Z,3.57
2023-02-22T03:15:22.940Z,4.77
2023-02-22T03:17:55.303Z,3.27
2023-02-22T03:20:31.828Z,3.47
2023-02-22T03:23:04.882Z,3.80
2023-02-22T03:25:35.740Z,2.43
2023-02-22T03:28:07.260Z,3.80
2023-02-22T03:30:38.112Z,3.37
2023-02-22T03:33:10.616Z,5.60
2023-02-22T03:35:43.067Z,2.90
2023-02-22T03:38:12.980Z,3.23
2023-02-22T03:40:44.423Z,4.20
2023-02-22T03:43:15.613Z,3.93
2023-02-22T03:45:44.197Z,3.83
2023-02-22T03:48:17.690Z,3.53
2023-02-22T03:50:48.101Z,3.40
2023-02-22T03:53:18.487Z,3.17
2023-02-22T03:55:47.366Z,3.53
2023-02-22T03:58:15.658Z,3.47
2023-02-22T04:00:44.648Z,2.90
2023-02-22T04:03:13.106Z,2.90
2023-02-22T04:05:41.413Z,4.10
2023-02-22T04:08:11.053Z,3.33
2023-02-22T04:10:39.341Z,4.40
2023-02-22T04:13:07.677Z,4.27
2023-02-22T04:15:35.954Z,4.50
2023-02-22T04:18:04.325Z,3.30
2023-02-22T04:20:32.646Z,2.90
2023-02-22T04:23:00.969Z,4.17
2023-02-22T04:25:30.668Z,3.57
2023-02-22T04:27:58.970Z,3.00
2023-02-22T04:30:28.275Z,3.10
2023-02-22T04:32:56.649Z,3.40
2023-02-22T04:35:24.859Z,4.10
2023-02-22T04:37:53.078Z,5.23
2023-02-22T04:40:23.097Z,4.80
2023-02-22T04:42:52.712Z,5.10
2023-02-22T04:45:21.114Z,5.90
2023-02-22T04:47:49.449Z,5.90
2023-02-22T04:50:17.913Z,6.30
2023-02-22T04:52:47.940Z,5.50
2023-02-22T04:55:16.579Z,6.77
2023-02-22T04:57:44.842Z,6.00
2023-02-22T05:00:18.465Z,5.63
2023-02-22T05:02:46.707Z,4.90
2023-02-22T05:05:16.030Z,5.67
2023-02-22T05:07:45.045Z,5.13
2023-02-22T05:10:13.577Z,6.20
2023-02-22T05:12:41.923Z,3.57
2023-02-22T05:15:11.376Z,4.20
2023-02-22T05:17:41.040Z,4.07
2023-02-22T05:20:11.417Z,3.97
2023-02-22T05:22:39.690Z,3.97
2023-02-22T05:25:08.984Z,4.03
2023-02-22T05:27:37.280Z,7.63
2023-02-22T05:30:09.202Z,5.37
2023-02-22T05:32:37.645Z,5.90
2023-02-22T05:35:08.378Z,6.07
2023-02-22T05:37:37.179Z,5.80
2023-02-22T05:40:07.623Z,4.33
2023-02-22T05:42:35.842Z,7.20
2023-02-22T05:45:04.108Z,6.80
2023-02-22T05:47:32.390Z,7.47
2023-02-22T05:50:01.802Z,5.93
2023-02-22T05:52:31.413Z,4.93
2023-02-22T05:55:00.340Z,4.70
2023-02-22T05:57:28.592Z,4.40
2023-02-22T05:59:56.874Z,4.27
2023-02-22T06:02:25.218Z,5.40
2023-02-22T06:04:53.549Z,6.90
2023-02-22T06:07:22.709Z,6.00
2023-02-22T06:09:53.463Z,6.03
2023-02-22T06:12:21.716Z,5.30
2023-02-22T06:14:49.963Z,6.10
2023-02-22T06:17:20.354Z,5.50
2023-02-22T06:19:48.891Z,5.33
2023-02-22T06:22:18.360Z,6.33
2023-02-22T06:24:46.636Z,3.53
2023-02-22T06:27:16.239Z,4.03
2023-02-22T06:29:46.555Z,4.20
2023-02-22T06:32:14.884Z,4.60
2023-02-22T06:34:43.209Z,4.50
2023-02-22T06:37:11.436Z,6.50
2023-02-22T06:39:39.670Z,4.90
2023-02-22T06:42:07.973Z,3.17
2023-02-22T06:44:37.676Z,3.50
2023-02-22T06:47:06.205Z,3.63
2023-02-22T06:49:34.490Z,4.60
2023-02-22T06:52:02.790Z,4.60
2023-02-22T06:54:31.067Z,4.60
2023-02-22T06:56:59.398Z,4.33
2023-02-22T06:59:28.018Z,4.60
2023-02-22T07:01:57.624Z,5.20
2023-02-22T07:04:25.918Z,4.40
2023-02-22T07:06:54.300Z,4.70
2023-02-22T07:09:22.578Z,5.00
2023-02-22T07:11:50.892Z,4.70
2023-02-22T07:14:19.282Z,4.47
2023-02-22T07:16:47.616Z,4.13
2023-02-22T07:19:17.384Z,5.63
2023-02-22T07:21:47.925Z,3.93
2023-02-22T07:24:16.197Z,3.83
2023-02-22T07:26:44.482Z,4.60
2023-02-22T07:29:12.810Z,5.40
2023-02-22T07:31:41.116Z,5.13
2023-02-22T07:34:09.412Z,4.00
2023-02-22T07:36:39.064Z,4.70
2023-02-22T07:39:08.713Z,5.20
2023-02-22T07:41:37.101Z,4.50
2023-02-22T07:44:05.908Z,3.87
2023-02-22T07:46:34.255Z,5.47
2023-02-22T07:49:02.517Z,4.60
2023-02-22T07:51:31.051Z,6.87
2023-02-22T07:54:00.787Z,4.63
2023-02-22T07:56:29.118Z,6.17
2023-02-22T07:58:57.333Z,4.90
2023-02-22T08:01:25.823Z,5.93
2023-02-22T08:03:54.144Z,5.10
2023-02-22T08:06:25.656Z,6.27
2023-02-22T08:08:53.980Z,5.43
2023-02-22T08:11:23.614Z,5.90
2023-02-22T08:13:52.100Z,4.47
2023-02-22T08:16:20.364Z,7.13
2023-02-22T08:18:48.660Z,6.00
2023-02-22T08:21:18.026Z,5.20
2023-02-22T08:23:46.450Z,5.20
2023-02-22T08:26:18.441Z,5.03
2023-02-22T08:28:48.158Z,6.70
2023-02-22T08:31:16.724Z,5.10
2023-02-22T08:33:48.798Z,4.70
2023-02-22T08:36:18.578Z,3.93
2023-02-22T08:38:46.966Z,4.60
2023-02-22T08:41:16.193Z,3.73
2023-02-22T08:43:44.889Z,3.90
2023-02-22T08:46:14.506Z,5.47
2023-02-22T08:48:51.228Z,4.77
2023-02-22T08:51:19.545Z,4.23
2023-02-22T08:53:47.857Z,4.97
2023-02-22T08:56:16.128Z,4.30
2023-02-22T08:58:44.406Z,5.60
2023-02-22T09:01:19.294Z,4.10
2023-02-22T09:03:50.386Z,5.10
2023-02-22T09:06:18.962Z,5.10
2023-02-22T09:08:47.271Z,5.27
2023-02-22T09:11:16.125Z,5.67
2023-02-22T09:13:44.517Z,5.33
2023-02-22T09:16:14.544Z,3.60
2023-02-22T09:18:44.592Z,4.20
2023-02-22T09:21:13.436Z,4.70
2023-02-22T09:23:42.607Z,4.77
2023-02-22T09:26:11.429Z,5.50
2023-02-22T09:28:39.754Z,4.60
2023-02-22T09:31:08.153Z,4.70
2023-02-22T09:33:37.821Z,4.63
2023-02-22T09:36:07.588Z,5.23
2023-02-22T09:38:36.240Z,4.90
2023-02-22T09:41:16.779Z,4.90
2023-02-22T09:43:49.315Z,4.03
2023-02-22T09:46:28.376Z,5.10
2023-02-22T09:49:03.210Z,4.70
2023-02-22T09:51:36.685Z,4.60
2023-02-22T09:54:14.501Z,8.97
2023-02-22T09:56:42.808Z,5.57
2023-02-22T09:59:12.427Z,6.70
2023-02-22T10:01:43.441Z,21.53
2023-02-22T10:04:19.037Z,11.93
2023-02-22T10:07:06.448Z,7.40
2023-02-22T10:09:38.281Z,5.07
2023-02-22T10:12:11.096Z,23.93
2023-02-22T10:14:58.295Z,8.10
2023-02-22T10:17:31.777Z,4.40
2023-02-22T10:20:19.608Z,3.70
2023-02-22T10:23:01.290Z,4.97
2023-02-22T10:25:34.946Z,4.77
2023-02-22T10:28:04.747Z,5.23
2023-02-22T10:30:34.638Z,4.90
2023-02-22T10:33:09.679Z,3.77
2023-02-22T10:35:41.181Z,4.60
2023-02-22T10:38:16.624Z,3.43
2023-02-22T10:40:46.522Z,3.80
2023-02-22T10:43:14.984Z,5.03
2023-02-22T10:45:43.223Z,4.53
2023-02-22T10:48:15.900Z,4.00
2023-02-22T10:50:46.687Z,3.57
2023-02-22T10:53:15.783Z,3.90
2023-02-22T10:56:13.994Z,4.57
2023-02-22T10:58:48.219Z,4.17
2023-02-22T11:01:35.527Z,4.80
2023-02-22T11:04:14.031Z,4.07
2023-02-22T11:06:45.386Z,5.00
2023-02-22T11:09:15.558Z,4.10
2023-02-22T11:11:45.895Z,4.50
2023-02-22T11:14:16.245Z,4.30
2023-02-22T11:16:47.049Z,4.13
2023-02-22T11:19:20.905Z,4.83
2023-02-22T11:21:52.993Z,4.00
2023-02-22T11:24:24.075Z,3.47
2023-02-22T11:26:54.617Z,4.17
2023-02-22T11:29:27.290Z,3.57
2023-02-22T11:31:55.807Z,5.63
2023-02-22T11:34:33.528Z,4.13
2023-02-22T11:37:30.380Z,5.17
2023-02-22T11:40:17.736Z,5.13
2023-02-22T11:42:46.185Z,4.50
2023-02-22T11:45:20.856Z,3.47
2023-02-22T11:47:54.528Z,3.90
2023-02-22T11:50:30.573Z,4.83
2023-02-22T11:53:23.580Z,5.13
2023-02-22T11:56:13.915Z,4.80
2023-02-22T11:58:47.203Z,4.10
2023-02-22T12:01:25.068Z,3.73
2023-02-22T12:04:26.488Z,4.93
2023-02-22T12:07:04.091Z,2.80
2023-02-22T12:09:38.296Z,2.80
2023-02-22T12:12:14.805Z,4.00
2023-02-22T12:14:48.425Z,3.50
2023-02-22T12:17:24.515Z,3.10
2023-02-22T12:19:54.052Z,3.30
2023-02-22T12:22:25.564Z,3.80
2023-02-22T12:25:09.016Z,2.57
2023-02-22T12:27:40.611Z,3.20
2023-02-22T12:30:13.117Z,2.80
2023-02-22T12:32:42.893Z,3.50
2023-02-22T12:35:16.012Z,3.40
2023-02-22T12:38:00.582Z,3.37
2023-02-22T12:40:35.556Z,2.60
2023-02-22T12:43:07.383Z,3.70
2023-02-22T12:45:38.218Z,2.77
2023-02-22T12:48:21.606Z,3.70
2023-02-22T12:50:53.811Z,2.97
2023-02-22T12:53:26.272Z,3.47
2023-02-22T12:55:58.429Z,2.93
2023-02-22T12:58:30.526Z,2.97
2023-02-22T13:01:02.076Z,3.47
2023-02-22T13:03:36.086Z,3.30
2023-02-22T13:06:29.466Z,2.90
2023-02-22T13:09:09.709Z,2.93
2023-02-22T13:11:43.161Z,3.73
2023-02-22T13:14:25.227Z,3.60
2023-02-22T13:16:56.326Z,4.53
2023-02-22T13:19:36.716Z,3.97
2023-02-22T13:22:08.798Z,3.93
2023-02-22T13:24:44.172Z,4.20
2023-02-22T13:27:15.422Z,4.67
2023-02-22T13:29:46.287Z,4.70
2023-02-22T13:32:25.752Z,4.13
2023-02-22T13:35:16.299Z,4.67
2023-02-22T13:38:27.285Z,4.53
2023-02-22T13:41:29.871Z,4.33
2023-02-22T13:44:51.560Z,4.50
2023-02-22T13:48:13.013Z,7.10
2023-02-22T13:51:07.645Z,7.47
2023-02-22T13:53:43.864Z,4.90
2023-02-22T13:56:12.736Z,4.03
2023-02-22T13:58:52.506Z,4.20
2023-02-22T14:01:45.657Z,2.83
2023-02-22T14:04:41.438Z,3.27
2023-02-22T14:07:57.908Z,4.30
2023-02-22T14:10:50.069Z,6.27
2023-02-22T14:13:19.667Z,4.57
2023-02-22T14:16:20.602Z,3.50
2023-02-22T14:18:51.766Z,3.50
2023-02-22T14:21:20.750Z,3.47
2023-02-22T14:23:49.465Z,2.70
2023-02-22T14:26:27.008Z,3.23
2023-02-22T14:28:57.513Z,3.70
2023-02-22T14:31:36.156Z,3.67
2023-02-22T14:34:09.435Z,3.83
2023-02-22T14:36:52.204Z,4.27
2023-02-22T14:39:25.716Z,3.60
2023-02-22T14:42:01.427Z,4.43
2023-02-22T14:44:35.854Z,3.33
2023-02-22T14:47:06.570Z,3.70
2023-02-22T14:49:41.577Z,2.93
2023-02-22T14:52:19.893Z,3.37
2023-02-22T14:54:58.075Z,2.87
2023-02-22T14:57:30.374Z,3.77
2023-02-22T15:00:22.619Z,3.07
2023-02-22T15:02:52.632Z,2.90
2023-02-22T15:05:22.317Z,3.23
2023-02-22T15:07:55.531Z,2.90
2023-02-22T15:10:27.889Z,4.10
2023-02-22T15:13:08.965Z,3.37
2023-02-22T15:15:39.619Z,3.33
2023-02-22T15:18:18.896Z,4.17
2023-02-22T15:20:55.841Z,3.90
2023-02-22T15:23:26.976Z,3.80
2023-02-22T15:25:55.316Z,3.80
2023-02-22T15:28:23.733Z,3.60
2023-02-22T15:30:52.081Z,3.43
2023-02-22T15:33:24.292Z,3.97
2023-02-22T15:35:57.685Z,8.80
2023-02-22T15:38:30.011Z,5.20
2023-02-22T15:41:03.279Z,3.60
2023-02-22T15:43:32.372Z,4.23
2023-02-22T15:46:00.888Z,4.90
2023-02-22T15:48:31.585Z,6.10
2023-02-22T15:51:07.048Z,3.83
2023-02-22T15:53:43.061Z,5.07
2023-02-22T15:56:15.835Z,3.80
2023-02-22T15:58:44.425Z,4.13
2023-02-22T16:01:17.177Z,4.90
2023-02-22T16:03:48.592Z,5.30
2023-02-22T16:06:29.988Z,5.47
2023-02-22T16:08:59.794Z,9.37
2023-02-22T16:11:31.034Z,4.87
2023-02-22T16:14:01.645Z,5.17
2023-02-22T16:16:32.287Z,4.27
2023-02-22T16:19:31.333Z,4.17
2023-02-22T16:22:03.068Z,4.50
2023-02-22T16:24:32.913Z,3.73
2023-02-22T16:27:07.234Z,4.10
2023-02-22T16:29:35.651Z,4.10
2023-02-22T16:32:04.805Z,3.93
2023-02-22T16:34:33.173Z,4.60
2023-02-22T16:37:02.839Z,4.60
2023-02-22T16:39:32.346Z,5.30
2023-02-22T16:42:02.784Z,3.60
2023-02-22T16:44:30.993Z,3.03
2023-02-22T16:47:00.607Z,2.70
2023-02-22T16:49:28.922Z,3.10
2023-02-22T16:51:59.781Z,7.63
2023-02-22T16:54:34.255Z,10.40
2023-02-22T16:57:03.966Z,6.83
2023-02-22T16:59:32.530Z,11.27
2023-02-22T17:02:00.803Z,5.90
2023-02-22T17:04:29.158Z,6.80
2023-02-22T17:06:59.086Z,15.67
2023-02-22T17:09:28.889Z,8.80
2023-02-22T17:11:57.217Z,6.20
2023-02-22T17:14:34.982Z,5.00
2023-02-22T17:17:03.374Z,5.07
2023-02-22T17:19:31.646Z,4.60
2023-02-22T17:22:01.302Z,5.30
2023-02-22T17:24:30.964Z,4.40
2023-02-22T17:26:59.812Z,5.77
2023-02-22T17:29:29.078Z,5.70
2023-02-22T17:31:57.564Z,4.33
2023-02-22T17:34:26.164Z,3.70
2023-02-22T17:36:54.379Z,10.47
2023-02-22T17:39:22.727Z,4.90
2023-02-22T17:41:57.559Z,4.13
2023-02-22T17:44:26.322Z,3.80
2023-02-22T17:46:54.740Z,6.23
2023-02-22T17:49:23.062Z,4.73
2023-02-22T17:51:53.150Z,3.10
2023-02-22T17:54:21.487Z,3.23
2023-02-22T17:56:51.215Z,3.50
2023-02-22T17:59:19.860Z,4.10
2023-02-22T18:01:48.915Z,3.63
2023-02-22T18:04:17.182Z,3.80
2023-02-22T18:06:46.286Z,3.40
2023-02-22T18:09:17.726Z,3.87
2023-02-22T18:11:46.069Z,4.10
2023-02-22T18:14:15.728Z,3.30
2023-02-22T18:16:46.884Z,4.33
2023-02-22T18:19:20.363Z,4.43
2023-02-22T18:21:49.736Z,4.27
2023-02-22T18:24:18.495Z,4.97
2023-02-22T18:26:47.559Z,5.37
2023-02-22T18:29:17.315Z,5.60
2023-02-22T18:31:46.422Z,3.80
2023-02-22T18:34:15.792Z,3.83
2023-02-22T18:36:44.089Z,4.90
2023-02-22T18:39:12.960Z,4.50
2023-02-22T18:41:41.394Z,17.03
2023-02-22T18:44:11.072Z,11.10
2023-02-22T18:46:40.818Z,10.67
2023-02-22T18:49:11.579Z,6.73
2023-02-22T18:51:40.074Z,7.67
2023-02-22T18:54:08.445Z,6.20
2023-02-22T18:56:36.829Z,6.33
2023-02-22T18:59:05.368Z,4.70
2023-02-22T19:01:38.651Z,5.10
2023-02-22T19:04:11.971Z,5.53
2023-02-22T19:06:40.372Z,4.43
2023-02-22T19:09:09.325Z,4.80
2023-02-22T19:11:37.872Z,6.20
2023-02-22T19:14:06.535Z,4.90
2023-02-22T19:16:34.920Z,5.10
2023-02-22T19:19:03.920Z,4.17
2023-02-22T19:21:33.897Z,4.93
2023-02-22T19:24:02.191Z,4.73
2023-02-22T19:26:30.789Z,5.23
2023-02-22T19:28:59.717Z,4.80
2023-02-22T19:31:31.034Z,4.90
2023-02-22T19:34:01.678Z,5.30
2023-02-22T19:36:30.566Z,4.60
2023-02-22T19:39:01.690Z,8.60
2023-02-22T19:41:30.228Z,8.00
2023-02-22T19:43:58.820Z,8.57
2023-02-22T19:46:27.078Z,5.63
2023-02-22T19:48:56.052Z,4.47
2023-02-22T19:51:26.165Z,4.97
2023-02-22T19:53:54.527Z,5.00
2023-02-22T19:56:27.224Z,6.03
2023-02-22T19:58:56.655Z,5.80
2023-02-22T20:01:26.168Z,4.90
2023-02-22T20:03:55.536Z,6.63
2023-02-22T20:06:26.475Z,4.50
2023-02-22T20:08:54.875Z,4.93
2023-02-22T20:11:24.940Z,4.03
2023-02-22T20:13:53.397Z,4.17
2023-02-22T20:16:21.687Z,3.80
2023-02-22T20:18:50.120Z,3.53
2023-02-22T20:21:20.766Z,3.40
2023-02-22T20:23:49.253Z,14.90
2023-02-22T20:26:19.515Z,16.87
2023-02-22T20:28:49.553Z,16.30
2023-02-22T20:31:18.571Z,21.67
2023-02-22T20:33:48.495Z,10.90
2023-02-22T20:36:17.912Z,5.60
2023-02-22T20:38:46.980Z,3.20
2023-02-22T20:41:16.932Z,3.90
2023-02-22T20:43:46.350Z,4.10
2023-02-22T20:46:16.158Z,4.10
2023-02-22T20:48:44.441Z,6.50
2023-02-22T20:51:14.055Z,4.63
2023-02-22T20:53:44.867Z,4.40
2023-02-22T20:56:14.460Z,4.53
2023-02-22T20:58:42.933Z,4.70
2023-02-22T21:01:13.771Z,5.50
2023-02-22T21:03:43.598Z,5.33
2023-02-22T21:06:14.984Z,6.70
2023-02-22T21:08:43.968Z,5.17
2023-02-22T21:11:12.593Z,5.37
2023-02-22T21:13:40.933Z,5.17
2023-02-22T21:16:10.304Z,5.20
2023-02-22T21:18:38.682Z,6.57
2023-02-22T21:21:10.332Z,6.70
2023-02-22T21:23:38.745Z,7.07
2023-02-22T21:26:07.378Z,6.20
2023-02-22T21:28:50.519Z,6.70
2023-02-22T21:31:20.500Z,6.50
2023-02-22T21:33:49.924Z,6.27
2023-02-22T21:36:19.823Z,6.03
2023-02-22T21:38:49.346Z,7.53
2023-02-22T21:41:18.376Z,6.17
2023-02-22T21:43:50.034Z,6.33
2023-02-22T21:46:18.444Z,6.70
2023-02-22T21:48:48.797Z,6.87
2023-02-22T21:51:20.573Z,7.00
2023-02-22T21:53:52.047Z,6.83
2023-02-22T21:56:27.535Z,7.47
2023-02-22T21:58:59.030Z,8.87
2023-02-22T22:01:28.475Z,7.07
2023-02-22T22:03:59.522Z,6.67
2023-02-22T22:06:29.623Z,7.93
2023-02-22T22:08:59.735Z,7.40
2023-02-22T22:11:30.505Z,7.80
2023-02-22T22:13:59.733Z,7.60
2023-02-22T22:16:30.183Z,7.90
2023-02-22T22:18:58.726Z,7.80
2023-02-22T22:21:28.632Z,6.77
2023-02-22T22:23:57.390Z,8.20
2023-02-22T22:26:26.157Z,8.40
2023-02-22T22:28:56.086Z,7.97
2023-02-22T22:31:25.893Z,8.83
2023-02-22T22:33:54.641Z,7.93
2023-02-22T22:36:23.206Z,8.10
2023-02-22T22:38:53.365Z,8.90
2023-02-22T22:41:21.906Z,8.83
2023-02-22T22:43:52.438Z,8.80
2023-02-22T22:46:21.531Z,8.83
2023-02-22T22:48:49.833Z,9.67
2023-02-22T22:51:20.658Z,8.47
2023-02-22T22:53:49.956Z,8.77
2023-02-22T22:56:21.167Z,9.80
2023-02-22T22:58:50.784Z,8.80
2023-02-22T23:01:26.894Z,9.90
2023-02-22T23:03:56.521Z,9.87
2023-02-22T23:06:25.961Z,10.50
2023-02-22T23:08:59.967Z,9.87
2023-02-22T23:11:33.596Z,9.90
2023-02-22T23:14:12.085Z,10.43
2023-02-22T23:16:40.856Z,10.77
2023-02-22T23:19:09.346Z,9.20
2023-02-22T23:21:38.343Z,9.80
2023-02-22T23:24:07.340Z,9.93
2023-02-22T23:26:36.977Z,11.60
2023-02-22T23:29:05.572Z,10.53
2023-02-22T23:31:33.880Z,11.00
2023-02-22T23:34:10.934Z,10.20
2023-02-22T23:36:39.462Z,11.20
2023-02-22T23:39:07.813Z,10.83
2023-02-22T23:41:37.471Z,10.27
2023-02-22T23:44:08.328Z,11.17
2023-02-22T23:46:36.822Z,10.93
2023-02-22T23:49:06.299Z,10.83
2023-02-22T23:51:39.379Z,10.97
2023-02-22T23:54:08.080Z,10.67
2023-02-22T23:56:40.025Z,10.77
2023-02-22T23:59:12.485Z,11.00
